Time;durP1;ratioP1;P1;durP2;ratioP2;P2;SDS_P1;SDS_P2;PMS_P1;PMS_P2;Temp;Humidity;BMP_temperature;BMP_pressure;BME280_temperature;BME280_humidity;BME280_pressure;Samples;Min_cycle;Max_cycle;Signal;HPM_P1;HPM_P2
2023/07/31 00:01:02;;;;;;;15.45;4.75;;;;;;;28.57;50.82;101278.59;21028242;28;20036;-70
2023/07/31 00:11:03;;;;;;;15.93;5.53;;;;;;;28.59;50.81;101273.47;21074722;28;20040;-70
2023/07/31 00:21:07;;;;;;;13.13;5.45;;;;;;;28.53;50.88;101263.50;21013675;28;20040;-69
2023/07/31 00:31:09;;;;;;;17.05;4.70;;;;;;;28.52;50.70;101264.66;21031868;28;20093;-73
2023/07/31 00:41:10;;;;;;;12.55;4.70;;;;;;;28.59;50.75;101254.59;21013056;28;20049;-73
2023/07/31 00:51:12;;;;;;;11.68;4.47;;;;;;;28.02;47.52;101257.28;21008071;28;20020;-72
2023/07/31 01:01:13;;;;;;;11.00;4.18;;;;;;;27.49;45.87;101260.00;21034999;28;20052;-69
2023/07/31 01:11:21;;;;;;;10.55;3.78;;;;;;;27.30;51.54;101291.91;21027387;28;20049;-74
2023/07/31 01:21:36;;;;;;;9.18;4.07;;;;;;;27.58;53.84;101308.69;21000258;28;20020;-73
2023/07/31 01:31:46;;;;;;;8.20;3.53;;;;;;;27.88;53.47;101328.81;21004466;28;20091;-74
2023/07/31 01:41:47;;;;;;;8.20;3.58;;;;;;;27.97;53.17;101333.38;21000815;28;20021;-74
2023/07/31 01:51:52;;;;;;;7.25;3.13;;;;;;;27.94;53.06;101324.72;20999608;28;20373;-74
2023/07/31 02:01:53;;;;;;;6.25;3.10;;;;;;;28.12;52.77;101347.03;20997542;28;20048;-74
2023/07/31 02:11:55;;;;;;;6.80;3.03;;;;;;;28.12;52.43;101351.81;21057395;28;20044;-73
2023/07/31 02:21:56;;;;;;;8.82;2.92;;;;;;;28.24;52.00;101354.91;21083102;28;20483;-73
2023/07/31 02:32:00;;;;;;;6.85;2.97;;;;;;;28.30;52.00;101359.22;21081391;28;20024;-75
2023/07/31 02:42:02;;;;;;;6.45;2.88;;;;;;;28.35;51.90;101350.69;21078562;28;20094;-74
2023/07/31 02:52:05;;;;;;;6.07;2.70;;;;;;;28.41;51.68;101350.53;21088968;28;20035;-74
2023/07/31 03:02:12;;;;;;;4.03;2.40;;;;;;;28.30;51.56;101319.84;21100301;28;20090;-78
2023/07/31 03:12:14;;;;;;;4.07;2.55;;;;;;;28.47;51.46;101340.81;21106541;28;20047;-74
2023/07/31 03:22:15;;;;;;;4.25;2.03;;;;;;;28.42;51.55;101343.78;21087042;28;20032;-74
2023/07/31 03:32:17;;;;;;;3.13;2.17;;;;;;;28.38;51.48;101334.31;21076530;28;20032;-75
2023/07/31 03:42:18;;;;;;;5.57;2.60;;;;;;;28.53;51.38;101347.97;21077505;28;20104;-73
2023/07/31 03:52:20;;;;;;;4.85;2.10;;;;;;;28.16;51.39;101288.13;21114420;28;20036;-75
2023/07/31 04:02:21;;;;;;;4.57;2.58;;;;;;;28.56;51.39;101355.78;21139352;28;20042;-75
2023/07/31 04:12:22;;;;;;;4.05;2.17;;;;;;;28.54;51.33;101336.38;21102746;28;20541;-73
2023/07/31 04:22:29;;;;;;;2.42;1.80;;;;;;;28.47;51.16;101298.59;21097812;28;20047;-73
2023/07/31 04:32:31;;;;;;;;;;;;;;;28.58;51.32;101328.13;21102667;28;20041;-73
2023/07/31 04:42:33;;;;;;;3.40;2.17;;;;;;;28.38;48.88;101323.06;21088072;28;19965;-74
2023/07/31 04:52:34;;;;;;;3.20;1.80;;;;;;;27.62;46.16;101304.94;21087521;28;20105;-74
2023/07/31 05:02:36;;;;;;;2.40;1.83;;;;;;;27.31;50.61;101323.69;21086146;28;20052;-74
2023/07/31 05:12:37;;;;;;;2.83;2.03;;;;;;;27.68;53.16;101319.72;21085034;28;20089;-73
2023/07/31 05:22:38;;;;;;;3.50;2.03;;;;;;;27.81;53.45;101307.63;21084817;28;20105;-74
2023/07/31 05:32:40;;;;;;;3.35;1.92;;;;;;;27.91;53.31;101294.44;21083629;28;20024;-74
2023/07/31 05:42:42;;;;;;;2.78;1.73;;;;;;;28.10;52.75;101306.31;21099644;28;20036;-73
2023/07/31 05:52:51;;;;;;;2.08;1.73;;;;;;;28.09;52.74;101307.47;21111987;28;20036;-74
2023/07/31 06:02:53;;;;;;;2.85;1.83;;;;;;;28.17;52.45;101312.31;21102927;28;20043;-73
2023/07/31 06:12:55;;;;;;;3.97;2.13;;;;;;;28.19;52.39;101306.38;21033698;28;20388;-73
2023/07/31 06:22:57;;;;;;;2.65;2.00;;;;;;;28.09;52.21;101288.59;20979434;28;20040;-74
2023/07/31 06:32:58;;;;;;;2.00;1.80;;;;;;;28.31;52.15;101310.22;20986818;28;20036;-73
2023/07/31 06:43:00;;;;;;;2.92;1.60;;;;;;;28.20;52.06;101297.59;20994131;28;20446;-74
2023/07/31 06:53:02;;;;;;;1.83;1.60;;;;;;;28.38;51.74;101320.25;20959383;28;20067;-73
2023/07/31 07:03:06;;;;;;;3.47;1.63;;;;;;;28.35;51.87;101297.22;20975559;28;20090;-74
2023/07/31 07:13:08;;;;;;;2.42;1.60;;;;;;;28.30;51.47;101291.69;20977465;28;20110;-73
2023/07/31 07:23:12;;;;;;;2.13;1.75;;;;;;;28.41;51.62;101297.91;20975169;28;20109;-73
2023/07/31 07:33:14;;;;;;;1.90;1.70;;;;;;;28.32;51.58;101288.56;21001332;28;20048;-73
2023/07/31 07:43:16;;;;;;;2.03;1.67;;;;;;;28.45;51.28;101275.56;20989963;28;20391;-73
2023/07/31 07:53:17;;;;;;;1.92;1.50;;;;;;;28.40;51.28;101256.00;21006745;28;20040;-74
2023/07/31 08:03:18;;;;;;;2.20;1.70;;;;;;;28.44;51.42;101266.28;21007525;28;20033;-74
2023/07/31 08:13:20;;;;;;;1.70;1.60;;;;;;;28.51;51.16;101279.91;21059669;28;20059;-74
2023/07/31 08:23:21;;;;;;;2.63;1.60;;;;;;;28.47;51.19;101262.00;21089070;28;20048;-74
2023/07/31 08:33:23;;;;;;;1.85;1.33;;;;;;;28.40;50.83;101268.09;21089118;28;20463;-74
2023/07/31 08:43:28;;;;;;;2.28;1.48;;;;;;;28.40;50.92;101265.28;21087172;28;20031;-76
2023/07/31 08:53:29;;;;;;;1.60;1.50;;;;;;;28.33;51.06;101262.91;21087836;28;20039;-74
2023/07/31 09:03:34;;;;;;;1.63;1.42;;;;;;;28.49;51.11;101279.38;21087797;28;20024;-74
2023/07/31 09:13:37;;;;;;;1.98;1.60;;;;;;;28.52;50.89;101281.56;21084979;28;20044;-75
2023/07/31 09:23:47;;;;;;;1.58;1.40;;;;;;;28.44;51.15;101290.78;21066358;28;20567;-74
2023/07/31 09:33:58;;;;;;;1.35;1.25;;;;;;;28.49;50.96;101290.66;21084676;28;20028;-75
2023/07/31 09:43:59;;;;;;;1.85;1.52;;;;;;;28.53;50.78;101297.28;21066237;28;20523;-74
2023/07/31 09:54:01;;;;;;;1.58;1.45;;;;;;;28.45;50.93;101295.25;21082518;28;20090;-74
2023/07/31 10:04:05;;;;;;;1.52;1.30;;;;;;;28.46;50.96;101294.13;21081891;28;20035;-74
2023/07/31 10:14:08;;;;;;;1.88;1.70;;;;;;;28.50;50.77;101317.63;21028872;28;20048;-75
2023/07/31 10:24:15;;;;;;;2.00;1.80;;;;;;;28.47;50.81;101302.25;20995411;28;20045;-75
2023/07/31 10:34:17;;;;;;;1.92;1.55;;;;;;;28.53;50.84;101339.53;20995363;28;20037;-76
2023/07/31 10:44:18;;;;;;;1.55;1.40;;;;;;;28.56;50.76;101361.41;20981837;28;20045;-74
2023/07/31 10:54:20;;;;;;;1.45;1.35;;;;;;;28.53;50.98;101350.78;20999900;28;20537;-74
2023/07/31 11:04:25;;;;;;;1.60;1.50;;;;;;;28.53;50.66;101356.41;20997982;28;20028;-75
2023/07/31 11:14:27;;;;;;;2.00;1.80;;;;;;;28.50;50.47;101359.88;21033686;28;20101;-75
2023/07/31 11:24:28;;;;;;;1.33;1.23;;;;;;;28.43;50.98;101374.41;21080394;28;20062;-73
2023/07/31 11:34:30;;;;;;;1.70;1.60;;;;;;;28.49;50.83;101392.00;21079555;28;20468;-75
2023/07/31 11:44:47;;;;;;;2.08;1.40;;;;;;;28.43;50.66;101396.94;21087831;28;20035;-75
2023/07/31 11:54:49;;;;;;;1.40;1.30;;;;;;;28.54;50.51;101417.19;21155145;28;20087;-74
2023/07/31 12:04:51;;;;;;;1.50;1.38;;;;;;;28.35;50.72;101412.59;21102144;28;20033;-74
2023/07/31 12:14:54;;;;;;;1.42;1.33;;;;;;;28.54;50.73;101431.28;21075091;28;20040;-74
2023/07/31 12:24:56;;;;;;;1.85;1.75;;;;;;;28.51;50.52;101434.75;21089684;28;20039;-75
2023/07/31 12:35:01;;;;;;;1.55;1.30;;;;;;;28.53;50.93;101433.25;21089301;28;20035;-75
2023/07/31 12:45:03;;;;;;;1.70;1.60;;;;;;;28.53;50.78;101430.44;21087200;28;20036;-74
2023/07/31 12:55:08;;;;;;;1.20;1.10;;;;;;;28.51;50.50;101424.31;21087319;28;20328;-76
2023/07/31 13:05:10;;;;;;;1.90;1.40;;;;;;;28.50;50.61;101407.72;21086399;28;20036;-74
2023/07/31 13:15:12;;;;;;;1.65;1.48;;;;;;;28.39;50.67;101389.44;21085646;28;20056;-75
2023/07/31 13:25:14;;;;;;;1.42;1.20;;;;;;;28.59;50.46;101422.69;21085083;28;20044;-75
2023/07/31 13:35:15;;;;;;;1.30;1.20;;;;;;;28.20;50.45;101348.25;21083925;28;20036;-77
2023/07/31 13:45:16;;;;;;;1.50;1.35;;;;;;;28.47;50.65;101397.13;21083489;28;20044;-76
2023/07/31 13:55:18;;;;;;;1.30;1.20;;;;;;;28.56;50.70;101406.47;21083762;28;20087;-75
2023/07/31 14:05:20;;;;;;;1.27;1.17;;;;;;;28.56;50.71;101398.00;21082251;28;20043;-75
2023/07/31 14:15:21;;;;;;;1.40;1.30;;;;;;;28.54;50.70;101403.13;21082019;28;20070;-76
2023/07/31 14:25:23;;;;;;;1.27;1.17;;;;;;;28.54;50.70;101397.47;21081016;28;20101;-75
2023/07/31 14:35:24;;;;;;;1.90;1.50;;;;;;;28.63;50.47;101407.63;21080190;28;20028;-76
2023/07/31 14:45:26;;;;;;;1.40;1.30;;;;;;;28.60;50.46;101402.69;21077919;28;20043;-76
2023/07/31 14:55:27;;;;;;;1.38;1.27;;;;;;;28.63;50.35;101406.81;21043389;28;20483;-75
2023/07/31 15:05:29;;;;;;;1.55;1.45;;;;;;;28.61;50.30;101409.13;21077639;28;20479;-75
2023/07/31 15:15:30;;;;;;;1.35;1.25;;;;;;;28.66;50.30;101405.34;21077194;28;20040;-76
2023/07/31 15:25:32;;;;;;;2.03;1.80;;;;;;;28.60;50.25;101404.66;21077415;28;20059;-76
2023/07/31 15:35:33;;;;;;;1.42;1.17;;;;;;;28.67;50.23;101413.47;21076209;28;20055;-76
2023/07/31 15:45:37;;;;;;;1.50;1.40;;;;;;;28.65;50.41;101409.31;21078664;28;20036;-75
2023/07/31 15:55:39;;;;;;;1.35;1.25;;;;;;;28.60;49.78;101401.84;21088341;28;20036;-75
2023/07/31 16:05:42;;;;;;;2.63;2.00;;;;;;;27.88;48.50;101387.88;21087187;28;20039;-75
2023/07/31 16:15:43;;;;;;;1.52;1.42;;;;;;;27.41;48.31;101392.88;21078988;28;20040;-73
2023/07/31 16:25:45;;;;;;;1.60;1.50;;;;;;;27.33;52.04;101388.81;21041560;28;20040;-74
2023/07/31 16:35:49;;;;;;;1.70;1.52;;;;;;;27.60;53.64;101379.50;21068167;28;20024;-73
2023/07/31 16:45:51;;;;;;;1.88;1.65;;;;;;;27.90;51.86;101377.97;21049241;28;20028;-76
2023/07/31 16:55:52;;;;;;;2.45;1.75;;;;;;;28.06;51.12;101381.25;21077579;28;20488;-78
2023/07/31 17:05:56;;;;;;;3.85;2.13;;;;;;;28.10;50.66;101356.97;21041082;28;20464;-77
2023/07/31 17:15:57;;;;;;;4.32;2.10;;;;;;;28.24;50.41;101366.16;21082356;28;20039;-76
2023/07/31 17:25:58;;;;;;;6.72;1.75;;;;;;;28.20;50.06;101341.78;21081613;28;20048;-77
2023/07/31 17:36:00;;;;;;;5.93;2.40;;;;;;;28.26;50.22;101329.25;21069606;28;20043;-77
2023/07/31 17:46:02;;;;;;;6.97;2.20;;;;;;;28.39;49.81;101338.78;21078876;28;20040;-76
2023/07/31 17:56:04;;;;;;;3.75;1.90;;;;;;;28.41;50.05;101336.47;21084456;28;20020;-75
2023/07/31 18:06:06;;;;;;;12.85;2.63;;;;;;;28.25;49.35;101336.84;21079313;28;20059;-74
2023/07/31 18:16:07;;;;;;;13.38;2.80;;;;;;;27.76;50.09;101335.84;21059626;28;20044;-74
2023/07/31 18:26:11;;;;;;;10.30;2.60;;;;;;;27.39;50.36;101296.78;21077800;28;20082;-73
2023/07/31 18:36:12;;;;;;;14.52;3.17;;;;;;;27.42;50.56;101307.41;21075731;28;20032;-73
2023/07/31 18:46:15;;;;;;;12.95;2.80;;;;;;;27.33;49.44;101308.16;21076308;28;20052;-75
2023/07/31 18:56:17;;;;;;;6.75;3.03;;;;;;;27.27;50.86;101300.16;21076345;28;20463;-74
2023/07/31 19:06:18;;;;;;;6.15;3.15;;;;;;;27.23;51.12;101290.72;21077644;28;20032;-74
2023/07/31 19:16:20;;;;;;;5.40;2.83;;;;;;;27.13;51.12;101286.16;21070449;28;20044;-74
2023/07/31 19:26:21;;;;;;;8.63;2.95;;;;;;;27.14;53.00;101282.19;21113381;28;20053;-73
2023/07/31 19:36:23;;;;;;;11.15;3.22;;;;;;;27.10;53.29;101287.59;21094345;28;20032;-73
2023/07/31 19:46:24;;;;;;;14.93;3.75;;;;;;;26.95;54.64;101264.63;21088946;28;20073;-73
2023/07/31 19:56:25;;;;;;;8.07;3.28;;;;;;;26.91;55.00;101256.00;21087783;28;20044;-73
2023/07/31 20:06:27;;;;;;;8.15;3.35;;;;;;;26.94;53.27;101272.22;21088890;28;20054;-75
2023/07/31 20:16:29;;;;;;;7.80;3.00;;;;;;;26.93;52.97;101298.63;21088577;28;20116;-75
2023/07/31 20:26:30;;;;;;;5.38;2.33;;;;;;;26.83;52.69;101299.66;21092332;28;20051;-76
2023/07/31 20:36:32;;;;;;;5.10;2.47;;;;;;;26.72;52.49;101295.41;21083088;28;20101;-75
2023/07/31 20:46:33;;;;;;;7.55;2.65;;;;;;;26.69;51.99;101292.41;21087624;28;20085;-75
2023/07/31 20:56:34;;;;;;;3.33;2.30;;;;;;;26.52;51.74;101282.59;21086863;28;20545;-76
2023/07/31 21:06:37;;;;;;;4.15;2.38;;;;;;;26.45;51.88;101282.22;21085753;28;20040;-74
2023/07/31 21:16:38;;;;;;;2.95;2.30;;;;;;;26.55;51.49;101298.84;21084192;28;20066;-76
2023/07/31 21:26:43;;;;;;;6.88;2.50;;;;;;;26.55;54.15;101307.25;21084238;28;20032;-73
2023/07/31 21:36:44;;;;;;;4.15;2.35;;;;;;;26.83;55.57;101310.91;21083699;28;20054;-75
2023/07/31 21:46:46;;;;;;;3.45;2.00;;;;;;;26.96;55.15;101305.59;21081949;28;20032;-74
2023/07/31 21:56:47;;;;;;;5.53;2.15;;;;;;;27.19;54.45;101296.13;21081689;28;20044;-75
2023/07/31 22:06:50;;;;;;;2.58;1.88;;;;;;;27.41;54.03;101308.56;21080304;28;20086;-76
2023/07/31 22:16:51;;;;;;;2.65;2.17;;;;;;;27.41;53.59;101300.97;21079322;28;20047;-72
2023/07/31 22:26:53;;;;;;;3.20;2.20;;;;;;;27.60;53.24;101324.09;21079980;28;20487;-75
2023/07/31 22:36:57;;;;;;;2.45;2.20;;;;;;;27.69;53.16;101321.38;21078885;28;20024;-75
2023/07/31 22:47:00;;;;;;;2.88;2.00;;;;;;;27.77;52.80;101337.53;21078396;28;20032;-75
2023/07/31 22:57:01;;;;;;;3.47;2.53;;;;;;;27.80;52.74;101348.13;21072842;28;20051;-73
2023/07/31 23:07:03;;;;;;;2.65;2.33;;;;;;;27.87;52.58;101347.69;21076963;28;20074;-74
2023/07/31 23:17:04;;;;;;;3.03;2.10;;;;;;;27.93;52.34;101360.47;21076620;28;20036;-73
2023/07/31 23:27:06;;;;;;;2.97;2.05;;;;;;;27.98;52.28;101376.38;21076218;28;20703;-74
2023/07/31 23:37:07;;;;;;;2.58;2.38;;;;;;;28.02;51.93;101399.91;21075816;28;20109;-76
2023/07/31 23:47:09;;;;;;;2.25;2.05;;;;;;;28.04;51.99;101395.66;21074951;28;20439;-75
2023/07/31 23:57:10;;;;;;;3.25;2.28;;;;;;;27.95;51.49;101386.31;21075105;28;20044;-76
